Time;durP1;ratioP1;P1;durP2;ratioP2;P2;SDS_P1;SDS_P2;PMS_P1;PMS_P2;Temp;Humidity;BMP_temperature;BMP_pressure;BME280_temperature;BME280_humidity;BME280_pressure;Samples;Min_cycle;Max_cycle;Signal;HPM_P1;HPM_P2
2021/03/12 00:00:59;;;;;;;11.60;7.58;;;;;;;3.44;50.32;97555.65;1746171;82;21521;-63
2021/03/12 00:03:34;;;;;;;16.05;7.17;;;;;;;3.42;50.10;97559.63;1746053;82;21160;-64
2021/03/12 00:06:09;;;;;;;14.17;7.17;;;;;;;3.39;50.10;97556.42;1746247;82;21603;-63
2021/03/12 00:08:42;;;;;;;18.00;8.23;;;;;;;3.36;50.38;97553.63;1715079;84;21404;-64
2021/03/12 00:11:11;;;;;;;15.03;6.83;;;;;;;3.38;49.47;97550.50;1746461;82;21203;-63
2021/03/12 00:13:41;;;;;;;13.03;7.10;;;;;;;3.38;50.37;97547.11;1748802;82;21159;-63
2021/03/12 00:16:09;;;;;;;11.70;6.53;;;;;;;3.38;50.27;97541.52;1748757;82;21198;-62
2021/03/12 00:18:41;;;;;;;13.22;6.67;;;;;;;3.41;49.89;97539.19;1748626;82;21132;-63
2021/03/12 00:21:14;;;;;;;10.88;6.42;;;;;;;3.43;49.28;97548.87;1750575;81;21643;-63
2021/03/12 00:23:44;;;;;;;15.93;7.97;;;;;;;3.47;48.85;97553.68;1750591;82;21676;-64
2021/03/12 00:26:14;;;;;;;14.00;8.00;;;;;;;3.43;50.50;97547.58;1750780;82;21592;-63
2021/03/12 00:28:42;;;;;;;17.25;6.67;;;;;;;3.31;50.54;97544.96;1750789;81;21787;-65
2021/03/12 00:31:10;;;;;;;11.48;7.53;;;;;;;3.34;49.69;97539.64;1751059;82;21285;-64
2021/03/12 00:33:39;;;;;;;14.63;6.62;;;;;;;3.33;50.21;97529.00;1750933;81;21548;-61
2021/03/12 00:36:08;;;;;;;13.70;7.75;;;;;;;3.33;50.48;97526.90;1721202;83;21611;-65
2021/03/12 00:38:36;;;;;;;12.30;7.33;;;;;;;3.28;50.79;97511.82;1750832;82;21147;-62
2021/03/12 00:41:07;;;;;;;12.55;6.50;;;;;;;3.29;50.89;97515.21;1751021;81;21664;-63
2021/03/12 00:43:40;;;;;;;12.88;6.92;;;;;;;3.28;51.02;97510.54;1751088;81;21202;-64
2021/03/12 00:46:11;;;;;;;14.10;6.47;;;;;;;3.32;50.91;97503.44;1750808;81;21147;-63
2021/03/12 00:48:39;;;;;;;11.93;6.22;;;;;;;3.35;50.36;97493.77;1751013;81;21731;-64
2021/03/12 00:51:08;;;;;;;15.85;7.22;;;;;;;3.39;50.20;97490.98;1750916;82;21151;-64
2021/03/12 00:53:38;;;;;;;11.57;6.15;;;;;;;3.39;50.35;97478.97;1750958;81;21163;-63
2021/03/12 00:56:06;;;;;;;14.07;6.62;;;;;;;3.39;50.37;97471.73;1750979;82;21571;-64
2021/03/12 00:58:57;;;;;;;10.05;6.15;;;;;;;3.40;50.61;97466.95;1750879;81;21536;-64
2021/03/12 01:01:27;;;;;;;12.53;6.72;;;;;;;3.41;50.42;97462.19;1670901;85;21321;-64
2021/03/12 01:03:55;;;;;;;15.48;7.33;;;;;;;3.41;50.01;97463.47;1674419;85;21306;-63
2021/03/12 01:06:24;;;;;;;14.98;6.22;;;;;;;3.39;50.72;97461.00;1676006;85;21192;-66
2021/03/12 01:08:53;;;;;;;13.68;7.70;;;;;;;3.40;50.79;97460.55;1676636;85;21140;-64
2021/03/12 01:11:24;;;;;;;13.65;7.25;;;;;;;3.37;50.50;97448.76;1676673;85;21187;-64
2021/03/12 01:13:52;;;;;;;14.63;7.80;;;;;;;3.38;50.67;97440.59;1676788;85;21144;-64
2021/03/12 01:16:20;;;;;;;13.28;6.92;;;;;;;3.36;50.40;97441.98;1676950;85;21167;-64
2021/03/12 01:18:49;;;;;;;10.75;6.33;;;;;;;3.32;50.41;97441.39;1676881;85;21228;-64
2021/03/12 01:21:19;;;;;;;11.53;6.42;;;;;;;3.36;49.84;97427.87;1676524;85;21136;-64
2021/03/12 01:23:50;;;;;;;11.53;6.40;;;;;;;3.37;49.69;97426.13;1676876;85;21580;-64
2021/03/12 01:26:19;;;;;;;13.20;6.97;;;;;;;3.37;49.56;97419.25;1652659;85;21184;-64
2021/03/12 01:28:48;;;;;;;12.28;6.55;;;;;;;3.40;49.28;97425.43;1676308;85;21155;-64
2021/03/12 01:31:17;;;;;;;13.88;6.67;;;;;;;3.44;49.03;97420.43;1676779;85;21608;-64
2021/03/12 01:33:47;;;;;;;13.28;6.80;;;;;;;3.47;48.79;97407.37;1676527;85;21168;-64
2021/03/12 01:36:17;;;;;;;9.90;5.50;;;;;;;3.47;48.83;97392.42;1676902;85;21140;-64
2021/03/12 01:38:49;;;;;;;17.42;6.55;;;;;;;3.47;48.77;97387.30;1676152;85;21163;-69
2021/03/12 01:41:17;;;;;;;10.28;6.40;;;;;;;3.47;48.76;97386.83;1676872;85;21176;-64
2021/03/12 01:43:46;;;;;;;12.85;7.28;;;;;;;3.45;49.35;97384.03;1652811;85;21203;-63
2021/03/12 01:46:16;;;;;;;11.70;7.00;;;;;;;3.44;48.89;97388.81;1676916;85;21176;-64
2021/03/12 01:48:44;;;;;;;15.85;6.67;;;;;;;3.48;48.90;97386.37;1676955;85;21215;-64
2021/03/12 01:51:13;;;;;;;12.98;6.35;;;;;;;3.49;49.21;97388.02;1676928;85;21144;-64
2021/03/12 01:53:41;;;;;;;11.78;6.25;;;;;;;3.50;48.38;97381.95;1676666;85;21684;-64
2021/03/12 01:56:11;;;;;;;16.15;6.80;;;;;;;3.51;48.25;97385.67;1676909;85;21172;-65
2021/03/12 01:58:40;;;;;;;16.50;6.87;;;;;;;3.53;48.53;97381.27;1676424;85;21671;-65
2021/03/12 02:01:10;;;;;;;15.23;6.50;;;;;;;3.50;50.10;97375.54;1676200;84;21117;-64
2021/03/12 02:03:40;;;;;;;7.45;5.35;;;;;;;3.46;50.45;97375.41;1669985;85;21239;-64
2021/03/12 02:06:10;;;;;;;15.50;7.78;;;;;;;3.45;49.88;97368.17;1674945;85;21187;-63
2021/03/12 02:08:40;;;;;;;14.87;7.75;;;;;;;3.47;49.83;97363.73;1676902;85;21660;-64
2021/03/12 02:11:18;;;;;;;15.38;8.80;;;;;;;3.45;50.47;97360.94;1676282;85;21199;-64
2021/03/12 02:13:55;;;;;;;14.35;6.85;;;;;;;3.45;49.92;97345.08;1676712;85;21592;-64
2021/03/12 02:16:40;;;;;;;10.93;6.70;;;;;;;3.38;50.38;97342.61;1676904;85;21152;-64
2021/03/12 02:19:53;;;;;;;22.25;7.97;;;;;;;3.38;50.65;97344.36;1677168;85;21213;-64
2021/03/12 02:22:22;;;;;;;11.43;6.25;;;;;;;3.37;50.87;97349.13;1677132;85;21171;-64
2021/03/12 02:24:59;;;;;;;12.93;6.72;;;;;;;3.32;51.31;97346.44;1678397;84;21206;-64
2021/03/12 02:27:48;;;;;;;13.25;7.15;;;;;;;3.42;50.28;97345.77;1819581;78;23144;-65
2021/03/12 02:30:36;;;;;;;7.92;5.40;;;;;;;3.38;49.86;97352.88;1792786;80;21270;-64
2021/03/12 02:33:07;;;;;;;11.75;5.87;;;;;;;3.43;49.34;97357.64;1611439;88;21490;-62
2021/03/12 02:35:41;;;;;;;11.68;5.60;;;;;;;3.42;49.43;97354.29;1610986;88;21263;-62
2021/03/12 02:38:33;;;;;;;14.15;6.05;;;;;;;3.46;49.01;97363.86;1610375;89;21157;-62
2021/03/12 02:41:05;;;;;;;13.35;6.87;;;;;;;3.49;49.44;97358.49;1611484;89;21604;-65
2021/03/12 02:43:37;;;;;;;15.13;6.45;;;;;;;3.44;50.42;97366.98;1610746;89;22256;-63
2021/03/12 02:46:07;;;;;;;12.65;6.47;;;;;;;3.43;49.97;97361.50;1584822;89;21644;-63
2021/03/12 02:48:36;;;;;;;11.08;6.37;;;;;;;3.41;49.77;97368.50;1611711;89;21656;-65
2021/03/12 02:51:09;;;;;;;14.60;6.62;;;;;;;3.44;49.26;97371.66;1611584;89;21176;-62
2021/03/12 02:53:38;;;;;;;15.63;8.30;;;;;;;3.50;49.05;97375.54;1611611;89;21212;-62
2021/03/12 02:56:19;;;;;;;15.68;7.97;;;;;;;3.53;50.30;97369.71;1609530;88;21144;-61
2021/03/12 02:58:51;;;;;;;19.98;9.43;;;;;;;3.50;50.73;97371.20;1585746;88;21637;-63
2021/03/12 03:01:40;;;;;;;19.92;9.35;;;;;;;3.48;51.35;97369.22;1530052;93;21748;-63
2021/03/12 03:04:32;;;;;;;22.93;9.08;;;;;;;3.55;50.62;97365.73;1779656;79;22979;-65
2021/03/12 03:07:31;;;;;;;15.08;8.18;;;;;;;3.51;49.99;97370.27;1752164;82;21121;-64
2021/03/12 03:10:00;;;;;;;17.00;8.50;;;;;;;3.56;49.86;97380.20;1645552;87;21621;-64
2021/03/12 03:12:30;;;;;;;12.50;7.75;;;;;;;3.60;49.86;97397.84;1645491;87;21229;-63
2021/03/12 03:15:01;;;;;;;16.35;8.33;;;;;;;3.62;49.75;97399.02;1645393;86;21605;-64
2021/03/12 03:17:53;;;;;;;22.13;9.10;;;;;;;3.64;50.07;97401.00;1645330;86;21375;-64
2021/03/12 03:20:26;;;;;;;11.28;7.17;;;;;;;3.65;49.94;97414.20;1696391;84;21175;-64
2021/03/12 03:22:56;;;;;;;22.67;9.28;;;;;;;3.66;49.84;97438.45;1697119;83;21592;-64
2021/03/12 03:25:25;;;;;;;17.92;9.33;;;;;;;3.63;50.74;97449.42;1697487;84;21604;-64
2021/03/12 03:27:54;;;;;;;13.72;8.60;;;;;;;3.60;50.41;97471.02;1696991;83;21560;-64
2021/03/12 03:30:44;;;;;;;16.70;9.38;;;;;;;3.62;49.76;97494.02;1696973;84;21262;-64
2021/03/12 03:33:16;;;;;;;15.23;8.43;;;;;;;3.66;49.45;97501.37;1680777;85;21517;-63
2021/03/12 03:35:46;;;;;;;18.85;7.20;;;;;;;3.62;51.97;97504.30;1681006;85;21575;-63
2021/03/12 03:38:13;;;;;;;12.03;6.62;;;;;;;3.56;52.56;97500.41;1647896;86;21596;-62
2021/03/12 03:40:43;;;;;;;12.95;6.25;;;;;;;3.56;53.13;97498.30;1647996;87;21686;-65
2021/03/12 03:43:13;;;;;;;12.13;7.03;;;;;;;3.51;53.52;97501.66;1647858;87;21604;-63
2021/03/12 03:45:42;;;;;;;15.58;6.87;;;;;;;3.45;54.67;97496.97;1647978;87;21278;-63
2021/03/12 03:48:13;;;;;;;11.50;6.70;;;;;;;3.37;56.84;97497.52;1647644;87;21204;-63
2021/03/12 03:50:43;;;;;;;12.40;6.78;;;;;;;3.31;58.92;97503.08;1647884;86;21219;-63
2021/03/12 03:53:13;;;;;;;15.70;7.97;;;;;;;3.26;59.00;97500.86;1647750;87;21259;-63
2021/03/12 03:55:42;;;;;;;15.80;7.15;;;;;;;3.15;61.47;97501.27;1647803;86;22364;-63
2021/03/12 03:58:11;;;;;;;14.45;8.50;;;;;;;3.13;60.85;97500.53;1647911;86;21207;-62
2021/03/12 04:00:40;;;;;;;12.00;6.47;;;;;;;3.08;61.17;97502.14;1623714;87;21246;-64
2021/03/12 04:03:10;;;;;;;10.32;6.00;;;;;;;2.84;65.19;97497.45;1647808;87;21604;-63
2021/03/12 04:05:41;;;;;;;12.78;6.97;;;;;;;2.79;64.36;97491.82;1647760;87;21223;-63
2021/03/12 04:08:10;;;;;;;15.32;6.20;;;;;;;2.71;67.27;97494.09;1647872;86;21203;-65
2021/03/12 04:10:39;;;;;;;11.12;6.85;;;;;;;2.65;67.50;97490.19;1647873;86;21703;-63
2021/03/12 04:13:09;;;;;;;10.00;7.10;;;;;;;2.59;68.31;97490.62;1647825;86;21635;-62
2021/03/12 04:15:37;;;;;;;13.80;8.90;;;;;;;2.47;71.62;97490.62;1647325;87;21183;-68
2021/03/12 04:18:07;;;;;;;11.10;7.47;;;;;;;2.28;73.50;97478.25;1647526;86;21655;-67
2021/03/12 04:20:37;;;;;;;12.73;7.72;;;;;;;2.15;74.58;97491.05;1647350;87;21282;-64
2021/03/12 04:23:06;;;;;;;11.50;5.65;;;;;;;2.07;76.21;97486.90;1644880;87;21208;-64
2021/03/12 04:25:36;;;;;;;12.98;6.80;;;;;;;1.96;76.46;97485.52;1623623;87;21194;-63
2021/03/12 04:28:05;;;;;;;10.03;6.75;;;;;;;1.91;77.14;97482.42;1647483;87;21273;-63
2021/03/12 04:30:34;;;;;;;10.68;4.85;;;;;;;1.76;78.33;97481.70;1647567;86;21163;-63
2021/03/12 04:33:02;;;;;;;5.83;4.25;;;;;;;1.75;79.18;97476.21;1630620;86;21696;-63
2021/03/12 04:35:33;;;;;;;5.42;4.55;;;;;;;1.76;78.25;97472.73;1628288;88;21216;-63
2021/03/12 04:38:04;;;;;;;6.42;4.83;;;;;;;1.69;78.98;97479.18;1663024;86;21203;-64
2021/03/12 04:40:32;;;;;;;13.03;5.78;;;;;;;1.67;80.03;97477.20;1628501;88;21180;-64
2021/03/12 04:43:02;;;;;;;10.18;4.55;;;;;;;1.58;81.05;97482.90;1662901;86;21224;-65
2021/03/12 04:45:30;;;;;;;7.70;4.20;;;;;;;1.51;81.31;97484.67;1628205;88;21628;-64
2021/03/12 04:48:00;;;;;;;6.28;3.47;;;;;;;1.47;80.42;97490.91;1628349;88;21228;-64
2021/03/12 04:50:30;;;;;;;5.87;4.03;;;;;;;1.39;81.09;97490.94;1628190;88;21208;-64
2021/03/12 04:52:59;;;;;;;6.75;4.60;;;;;;;1.32;81.56;97488.88;1626055;88;21685;-64
2021/03/12 04:55:29;;;;;;;4.08;2.67;;;;;;;1.25;82.37;97492.70;1663208;86;21202;-64
2021/03/12 04:57:57;;;;;;;7.78;4.87;;;;;;;1.26;79.71;97488.78;1628515;88;21224;-64
2021/03/12 05:00:26;;;;;;;7.87;3.30;;;;;;;1.19;82.39;97493.94;1628137;88;21196;-64
2021/03/12 05:02:56;;;;;;;6.33;3.70;;;;;;;1.17;82.85;97488.08;1628133;88;21255;-63
2021/03/12 05:05:29;;;;;;;8.85;4.47;;;;;;;1.19;81.88;97481.14;1663078;86;21212;-63
2021/03/12 05:07:58;;;;;;;3.83;2.60;;;;;;;1.13;84.45;97485.34;1604834;88;21244;-63
2021/03/12 05:10:29;;;;;;;6.87;4.50;;;;;;;1.09;84.23;97486.45;1638171;86;21208;-64
2021/03/12 05:13:00;;;;;;;13.35;5.42;;;;;;;1.10;84.62;97493.22;1628243;88;21184;-64
2021/03/12 05:15:30;;;;;;;7.30;4.95;;;;;;;1.07;85.35;97490.86;1605277;88;21247;-64
2021/03/12 05:17:58;;;;;;;5.80;4.67;;;;;;;1.19;83.67;97489.27;1628240;88;21208;-64
2021/03/12 05:20:27;;;;;;;6.58;4.25;;;;;;;1.19;85.00;97490.09;1662983;86;21183;-64
2021/03/12 05:22:56;;;;;;;6.62;4.80;;;;;;;1.26;85.58;97494.36;1628108;88;21192;-62
2021/03/12 05:25:25;;;;;;;5.53;4.08;;;;;;;1.24;85.49;97483.42;1662969;86;21616;-62
2021/03/12 05:27:53;;;;;;;8.30;5.40;;;;;;;1.29;84.52;97483.47;1628233;88;21688;-63
2021/03/12 05:30:44;;;;;;;10.43;5.35;;;;;;;1.26;83.61;97463.66;1626159;88;21388;-64
2021/03/12 05:33:12;;;;;;;8.93;5.85;;;;;;;1.37;83.86;97472.75;1722577;83;21200;-63
2021/03/12 05:35:40;;;;;;;9.88;5.37;;;;;;;1.40;84.73;97478.48;1722692;82;21200;-65
2021/03/12 05:38:09;;;;;;;6.25;4.15;;;;;;;1.29;86.22;97474.52;1722678;82;21138;-62
2021/03/12 05:40:42;;;;;;;7.58;5.60;;;;;;;1.32;85.92;97474.31;1722761;82;21713;-63
2021/03/12 05:43:11;;;;;;;5.47;3.50;;;;;;;1.35;85.11;97484.83;1722645;83;21452;-63
2021/03/12 05:45:42;;;;;;;10.85;5.17;;;;;;;1.37;84.99;97479.14;1720534;83;21208;-63
2021/03/12 05:48:13;;;;;;;8.18;5.92;;;;;;;1.39;85.78;97478.15;1722616;82;22043;-63
2021/03/12 05:50:41;;;;;;;14.95;5.90;;;;;;;1.46;84.85;97465.77;1722833;83;21189;-62
2021/03/12 05:53:12;;;;;;;9.50;4.85;;;;;;;1.43;85.61;97469.36;1722741;82;21634;-63
2021/03/12 05:55:42;;;;;;;7.67;5.33;;;;;;;1.41;85.92;97461.41;1722782;82;21173;-63
2021/03/12 05:58:10;;;;;;;8.18;5.53;;;;;;;1.47;85.75;97474.27;1722526;83;21237;-63
2021/03/12 06:00:39;;;;;;;6.65;3.92;;;;;;;1.48;85.40;97469.04;1696005;83;21165;-63
2021/03/12 06:03:08;;;;;;;7.00;4.45;;;;;;;1.54;84.80;97461.44;1722709;83;21618;-63
2021/03/12 06:05:47;;;;;;;7.55;5.20;;;;;;;1.59;84.41;97458.13;1721409;83;21157;-63
2021/03/12 06:08:16;;;;;;;8.88;4.28;;;;;;;1.60;84.58;97461.85;1716100;83;21586;-64
2021/03/12 06:10:46;;;;;;;9.35;5.75;;;;;;;1.65;84.20;97457.27;1702986;83;21282;-63
2021/03/12 06:13:16;;;;;;;7.90;4.67;;;;;;;1.68;84.85;97460.90;1683318;84;21596;-63
2021/03/12 06:15:47;;;;;;;9.93;4.58;;;;;;;1.70;84.39;97455.69;1683637;84;21180;-64
2021/03/12 06:18:25;;;;;;;6.90;4.53;;;;;;;1.75;83.93;97453.66;1683428;84;21166;-63
2021/03/12 06:21:01;;;;;;;11.95;6.17;;;;;;;1.73;84.96;97446.06;1688303;82;21105;-63
2021/03/12 06:23:45;;;;;;;8.20;4.60;;;;;;;1.76;85.36;97438.64;1703008;83;21240;-63
2021/03/12 06:26:10;;;;;;;9.45;5.03;;;;;;;1.79;85.22;97437.17;1720799;82;21177;-64
2021/03/12 06:28:43;;;;;;;10.45;7.12;;;;;;;1.63;85.71;97423.75;1720454;83;21154;-64
2021/03/12 06:31:33;;;;;;;11.08;7.83;;;;;;;1.77;85.83;97424.92;1700161;83;21182;-65
2021/03/12 06:34:10;;;;;;;13.45;6.85;;;;;;;1.79;85.08;97400.85;1700240;83;21199;-64
2021/03/12 06:36:52;;;;;;;7.90;4.90;;;;;;;1.81;85.27;97396.47;1643621;83;21258;-64
2021/03/12 06:39:53;;;;;;;6.78;5.08;;;;;;;1.81;86.34;97379.82;1721855;83;21105;-69
2021/03/12 06:42:25;;;;;;;8.53;6.03;;;;;;;1.84;86.71;97375.77;1716959;82;21244;-69
2021/03/12 06:44:57;;;;;;;9.05;4.55;;;;;;;1.88;86.63;97377.20;1718105;83;21173;-69
2021/03/12 06:47:25;;;;;;;8.93;5.25;;;;;;;1.94;84.82;97369.58;1666427;83;21574;-63
2021/03/12 06:50:09;;;;;;;6.85;4.10;;;;;;;2.13;84.59;97373.80;1691612;84;21264;-63
2021/03/12 06:52:46;;;;;;;8.88;6.85;;;;;;;2.26;83.77;97358.39;1690527;84;21718;-63
2021/03/12 06:55:25;;;;;;;9.23;4.42;;;;;;;2.24;83.76;97350.01;1690907;84;21312;-64
2021/03/12 06:58:10;;;;;;;8.65;3.87;;;;;;;2.38;83.37;97342.98;1669180;84;21211;-63
2021/03/12 07:00:41;;;;;;;6.55;3.95;;;;;;;1.95;82.27;97252.59;1689306;84;21231;-64
2021/03/12 07:03:38;;;;;;;8.25;3.70;;;;;;;2.67;81.71;97345.25;1690522;84;21152;-63
2021/03/12 07:08:49;;;;;;;10.95;6.20;;;;;;;2.92;81.54;97319.97;1780594;79;22774;-64
2021/03/12 07:11:28;;;;;;;5.70;4.28;;;;;;;2.92;80.34;97327.66;1750906;81;21648;-64
2021/03/12 07:14:14;;;;;;;5.08;3.77;;;;;;;3.07;80.00;97324.80;1753398;82;21665;-64
2021/03/12 07:16:46;;;;;;;10.75;3.75;;;;;;;3.16;78.85;97316.41;1720251;82;21124;-64
2021/03/12 07:19:15;;;;;;;4.67;3.27;;;;;;;3.17;77.96;97316.77;1753398;81;21160;-64
2021/03/12 07:21:48;;;;;;;11.12;4.15;;;;;;;3.30;77.90;97311.10;1723718;82;21247;-64
2021/03/12 07:24:20;;;;;;;11.68;3.08;;;;;;;3.44;77.82;97313.09;1723616;82;21140;-63
2021/03/12 07:26:59;;;;;;;9.00;4.72;;;;;;;3.59;77.06;97310.66;1753142;81;21209;-65
2021/03/12 07:29:29;;;;;;;7.10;3.58;;;;;;;3.72;76.59;97308.34;1752296;82;21148;-64
2021/03/12 07:32:09;;;;;;;7.08;4.33;;;;;;;3.88;75.77;97308.46;1745022;82;21121;-63
2021/03/12 07:34:39;;;;;;;6.80;3.70;;;;;;;4.01;74.45;97317.66;1719705;82;21479;-63
2021/03/12 07:37:10;;;;;;;6.12;3.47;;;;;;;4.14;73.75;97325.25;1752039;82;21133;-63
2021/03/12 07:42:28;;;;;;;6.45;4.12;;;;;;;4.27;70.81;97332.38;1720874;83;21205;-64
2021/03/12 07:45:06;;;;;;;11.28;4.55;;;;;;;4.35;70.57;97336.92;1674305;83;21225;-63
2021/03/12 07:47:53;;;;;;;10.72;4.03;;;;;;;4.41;70.31;97339.82;1720785;83;21461;-63
2021/03/12 07:50:35;;;;;;;8.75;4.42;;;;;;;4.53;69.49;97347.04;1720776;83;21162;-64
2021/03/12 07:53:07;;;;;;;5.00;3.58;;;;;;;4.60;68.74;97354.16;1721033;83;21188;-64
2021/03/12 07:55:51;;;;;;;8.53;3.90;;;;;;;4.64;68.41;97355.55;1720411;83;21169;-63
2021/03/12 07:58:53;;;;;;;24.57;9.58;;;;;;;4.74;68.70;97360.80;1678792;83;21623;-64
2021/03/12 08:01:24;;;;;;;25.95;12.53;;;;;;;4.76;67.67;97353.77;1715589;83;21634;-63
2021/03/12 08:03:54;;;;;;;17.20;10.38;;;;;;;4.87;67.82;97356.30;1690523;83;21162;-63
2021/03/12 08:06:41;;;;;;;29.55;15.05;;;;;;;4.89;68.32;97372.91;1749288;81;21734;-64
2021/03/12 08:09:36;;;;;;;12.93;6.75;;;;;;;4.97;66.32;97371.83;1757336;81;21156;-63
2021/03/12 08:12:30;;;;;;;10.75;4.90;;;;;;;4.76;65.98;97367.91;1750507;82;21155;-64
2021/03/12 08:21:32;;;;;;;8.05;4.80;;;;;;;4.60;68.02;97389.33;1710045;82;21631;-63
2021/03/12 08:24:02;;;;;;;7.65;4.55;;;;;;;4.54;67.96;97394.50;1710295;82;21096;-63
2021/03/12 08:26:54;;;;;;;6.60;4.22;;;;;;;4.33;69.22;97403.03;1700365;84;21512;-64
2021/03/12 08:33:12;;;;;;;13.45;4.50;;;;;;;4.57;72.98;97399.40;1705213;84;21142;-64
2021/03/12 08:39:29;;;;;;;6.22;4.60;;;;;;;4.49;68.23;97424.06;1658611;83;21593;-64
2021/03/12 08:42:18;;;;;;;10.88;4.17;;;;;;;4.48;69.30;97429.67;1780156;80;21139;-64
2021/03/12 08:44:59;;;;;;;8.55;3.95;;;;;;;4.45;70.17;97424.77;1778890;80;21160;-65
2021/03/12 08:47:38;;;;;;;6.17;3.35;;;;;;;4.46;70.59;97432.02;1778634;79;21187;-65
2021/03/12 08:50:30;;;;;;;7.30;3.50;;;;;;;4.57;71.18;97421.26;1780259;79;21165;-64
2021/03/12 08:53:00;;;;;;;4.80;3.37;;;;;;;4.68;70.76;97423.81;1747999;81;21265;-65
2021/03/12 08:55:30;;;;;;;5.40;3.40;;;;;;;4.68;69.59;97422.98;1743639;81;21155;-64
2021/03/12 08:58:29;;;;;;;7.40;3.58;;;;;;;4.67;70.66;97420.06;1748078;81;21164;-65
2021/03/12 09:01:13;;;;;;;8.20;3.42;;;;;;;4.68;71.64;97420.41;1747093;81;21192;-64
2021/03/12 09:03:59;;;;;;;6.58;3.37;;;;;;;4.67;72.44;97413.17;1780030;79;23027;-64
2021/03/12 09:06:32;;;;;;;8.50;3.85;;;;;;;4.64;72.03;97421.12;1742840;82;21514;-64
2021/03/12 09:09:26;;;;;;;4.53;2.72;;;;;;;4.67;72.04;97417.02;1738783;82;21116;-64
2021/03/12 09:11:58;;;;;;;6.37;3.75;;;;;;;4.95;71.00;97423.41;1755081;82;21191;-62
2021/03/12 09:14:40;;;;;;;6.83;3.98;;;;;;;5.01;72.11;97423.41;1720226;82;21140;-67
2021/03/12 09:17:09;;;;;;;8.58;4.30;;;;;;;5.04;72.01;97402.10;1721796;82;21195;-62
2021/03/12 09:19:40;;;;;;;5.50;3.80;;;;;;;5.01;71.89;97414.39;1721698;82;21612;-65
2021/03/12 09:22:10;;;;;;;7.12;4.50;;;;;;;5.28;71.09;97418.63;1714675;82;21259;-64
2021/03/12 09:24:54;;;;;;;8.33;5.12;;;;;;;5.06;72.18;97419.97;1733269;83;21183;-66
2021/03/12 09:27:39;;;;;;;5.92;3.55;;;;;;;5.60;70.69;97423.77;1753522;80;21147;-64
2021/03/12 09:30:27;;;;;;;5.35;3.20;;;;;;;5.93;69.78;97411.17;1755043;80;21269;-64
2021/03/12 09:32:57;;;;;;;5.50;3.47;;;;;;;6.12;67.88;97423.69;1755337;82;21620;-64
2021/03/12 09:35:27;;;;;;;3.72;2.65;;;;;;;6.24;67.41;97427.00;1728358;82;21200;-65
2021/03/12 09:37:57;;;;;;;5.92;2.80;;;;;;;6.27;66.74;97414.31;1756005;81;21160;-65
2021/03/12 09:40:47;;;;;;;5.90;3.92;;;;;;;6.39;66.83;97408.95;1747116;81;21249;-63
2021/03/12 09:43:17;;;;;;;8.08;4.67;;;;;;;6.36;67.09;97411.80;1747607;81;21176;-63
2021/03/12 09:45:59;;;;;;;6.80;4.22;;;;;;;5.94;68.66;97425.70;1728756;83;21670;-66
2021/03/12 09:48:33;;;;;;;6.58;4.12;;;;;;;5.76;69.78;97423.33;1730340;82;21561;-64
2021/03/12 09:51:04;;;;;;;9.35;3.35;;;;;;;5.78;68.16;97426.11;1748842;82;21177;-64
2021/03/12 09:53:34;;;;;;;8.50;4.12;;;;;;;5.53;69.30;97432.44;1693171;84;21159;-64
2021/03/12 09:56:05;;;;;;;7.58;4.60;;;;;;;5.22;69.68;97430.69;1748127;81;21199;-64
2021/03/12 09:58:35;;;;;;;12.40;5.80;;;;;;;5.34;69.33;97439.19;1700476;83;21227;-64
2021/03/12 10:01:22;;;;;;;8.05;4.80;;;;;;;5.10;71.38;97441.48;1739465;82;21274;-64
2021/03/12 10:03:52;;;;;;;8.58;4.00;;;;;;;4.97;70.98;97443.41;1761086;80;21560;-65
2021/03/12 10:06:25;;;;;;;16.77;4.47;;;;;;;4.77;71.94;97439.00;1761397;80;21608;-64
2021/03/12 10:09:09;;;;;;;10.55;4.53;;;;;;;4.66;72.31;97446.73;1760367;81;21171;-64
2021/03/12 10:11:56;;;;;;;7.05;3.92;;;;;;;4.71;71.97;97443.32;1761885;81;21143;-64
2021/03/12 10:14:33;;;;;;;6.20;3.92;;;;;;;4.80;71.24;97431.04;1759682;81;21548;-64
2021/03/12 10:17:30;;;;;;;6.35;4.08;;;;;;;4.67;71.85;97440.63;1761158;81;21604;-64
2021/03/12 10:20:03;;;;;;;6.65;3.87;;;;;;;4.95;71.05;97437.55;1727368;81;21170;-64
2021/03/12 10:22:41;;;;;;;7.65;4.10;;;;;;;4.95;71.08;97440.13;1760529;81;21211;-64
2021/03/12 10:25:32;;;;;;;11.50;5.28;;;;;;;5.17;70.69;97451.67;1727692;81;21163;-67
2021/03/12 10:28:11;;;;;;;15.35;5.05;;;;;;;5.26;70.44;97449.63;1761354;81;21196;-65
2021/03/12 10:31:05;;;;;;;5.67;3.85;;;;;;;5.03;71.17;97444.67;1761219;81;21227;-64
2021/03/12 10:33:34;;;;;;;9.20;4.78;;;;;;;5.04;70.69;97454.03;1719629;82;21196;-64
2021/03/12 10:36:05;;;;;;;6.75;4.05;;;;;;;4.94;70.45;97457.78;1707388;84;21622;-64
2021/03/12 10:38:35;;;;;;;5.75;3.83;;;;;;;4.76;71.27;97454.08;1707195;83;21177;-64
2021/03/12 10:41:25;;;;;;;7.72;3.70;;;;;;;4.83;70.95;97457.80;1706110;84;21172;-65
2021/03/12 10:44:07;;;;;;;9.20;4.95;;;;;;;4.88;71.06;97454.41;1707567;84;21155;-64
2021/03/12 10:46:37;;;;;;;5.65;2.67;;;;;;;4.73;71.37;97451.28;1699770;84;21561;-64
2021/03/12 10:49:06;;;;;;;12.50;3.98;;;;;;;4.72;71.65;97443.68;1700098;84;21163;-65
2021/03/12 10:51:41;;;;;;;6.53;5.50;;;;;;;4.71;72.25;97438.17;1670438;86;21646;-64
2021/03/12 10:54:15;;;;;;;10.35;5.08;;;;;;;4.57;72.35;97435.41;1730076;83;21203;-64
2021/03/12 10:56:47;;;;;;;10.85;4.30;;;;;;;4.72;71.81;97431.64;1730143;82;21119;-64
2021/03/12 10:59:16;;;;;;;8.27;5.07;;;;;;;4.81;72.45;97426.72;1730347;83;21540;-65
2021/03/12 11:01:48;;;;;;;7.50;3.92;;;;;;;5.08;71.25;97406.53;1730499;82;21619;-70
2021/03/12 11:04:17;;;;;;;6.35;3.50;;;;;;;5.83;70.18;97427.03;1730501;83;21147;-65
2021/03/12 11:06:45;;;;;;;8.95;4.75;;;;;;;6.23;67.57;97424.08;1730328;81;21551;-64
2021/03/12 11:09:13;;;;;;;9.63;4.80;;;;;;;6.76;65.75;97422.11;1730302;83;21694;-64
2021/03/12 11:11:44;;;;;;;12.15;4.65;;;;;;;7.29;64.04;97420.48;1730208;83;21172;-64
2021/03/12 11:14:13;;;;;;;8.55;4.35;;;;;;;7.29;63.38;97416.13;1698713;83;23114;-64
2021/03/12 11:16:42;;;;;;;12.13;5.42;;;;;;;7.75;62.46;97414.13;1730323;82;21167;-64
2021/03/12 11:19:11;;;;;;;9.15;5.28;;;;;;;7.80;61.74;97411.95;1730222;82;21171;-64
2021/03/12 11:21:41;;;;;;;8.23;4.50;;;;;;;7.31;62.52;97406.97;1730051;81;21167;-64
2021/03/12 11:24:10;;;;;;;10.53;4.75;;;;;;;7.15;63.58;97410.09;1730412;81;21162;-64
2021/03/12 11:26:42;;;;;;;9.78;4.97;;;;;;;6.77;64.55;97413.41;1730279;82;21115;-64
2021/03/12 11:29:33;;;;;;;14.63;6.00;;;;;;;6.35;67.10;97401.59;1730330;82;21583;-65
2021/03/12 11:32:01;;;;;;;19.67;7.33;;;;;;;6.24;68.18;97400.40;1727695;82;21582;-63
2021/03/12 11:34:30;;;;;;;14.25;5.47;;;;;;;6.61;66.96;97389.39;1727809;82;21336;-64
2021/03/12 11:36:59;;;;;;;10.60;4.75;;;;;;;6.66;66.28;97389.00;1728153;82;21273;-64
2021/03/12 11:39:48;;;;;;;5.70;4.08;;;;;;;6.63;66.13;97387.98;1727940;83;21592;-64
2021/03/12 11:42:19;;;;;;;18.00;4.10;;;;;;;6.69;66.02;97393.92;1681301;85;21227;-64
2021/03/12 11:44:48;;;;;;;11.60;4.60;;;;;;;6.83;66.09;97397.88;1681221;85;21129;-63
2021/03/12 11:47:16;;;;;;;11.15;4.78;;;;;;;6.80;66.49;97388.64;1681277;84;21168;-65
2021/03/12 11:49:47;;;;;;;14.90;5.40;;;;;;;6.80;66.42;97395.56;1681107;85;21215;-64
2021/03/12 11:52:17;;;;;;;9.60;4.22;;;;;;;6.76;67.31;97380.83;1681318;85;21628;-65
2021/03/12 11:54:44;;;;;;;8.58;4.53;;;;;;;6.96;66.34;97397.98;1681180;85;21214;-64
2021/03/12 11:57:13;;;;;;;6.72;4.12;;;;;;;7.11;65.84;97394.52;1681345;85;21617;-64
2021/03/12 11:59:41;;;;;;;14.07;4.28;;;;;;;7.30;64.89;97404.04;1681243;85;21188;-63
2021/03/12 12:02:10;;;;;;;11.55;5.00;;;;;;;7.32;64.87;97395.66;1680991;85;21155;-64
2021/03/12 12:04:38;;;;;;;11.95;5.75;;;;;;;7.44;63.98;97395.88;1681134;85;21629;-64
2021/03/12 12:07:06;;;;;;;8.08;4.20;;;;;;;7.32;65.23;97387.92;1681087;85;21145;-64
2021/03/12 12:09:34;;;;;;;13.38;4.65;;;;;;;7.38;64.60;97392.08;1681218;85;21651;-64
2021/03/12 12:12:24;;;;;;;9.50;4.42;;;;;;;7.10;65.94;97380.80;1681469;85;21309;-64
2021/03/12 12:14:53;;;;;;;7.50;4.67;;;;;;;7.21;65.47;97397.09;1714841;84;21675;-63
2021/03/12 12:17:23;;;;;;;15.58;5.15;;;;;;;7.07;66.04;97401.73;1714760;82;21296;-67
2021/03/12 12:19:51;;;;;;;7.62;3.92;;;;;;;7.00;66.09;97377.38;1715107;84;21277;-63
2021/03/12 12:22:19;;;;;;;9.70;4.78;;;;;;;7.23;65.14;97391.34;1715049;82;21163;-64
2021/03/12 12:24:47;;;;;;;8.23;3.80;;;;;;;7.32;65.64;97382.28;1714758;83;21164;-63
2021/03/12 12:27:17;;;;;;;8.05;3.80;;;;;;;7.35;65.19;97392.36;1714808;82;21298;-63